createdAt,value
2018-07-23T00:00:23.318Z,17.70
2018-07-23T00:02:51.752Z,17.70
2018-07-23T00:05:20.405Z,17.70
2018-07-23T00:07:49.094Z,17.80
2018-07-23T00:10:17.557Z,17.80
2018-07-23T00:12:46.013Z,17.70
2018-07-23T00:15:17.709Z,17.70
2018-07-23T00:17:46.174Z,17.60
2018-07-23T00:20:14.638Z,17.60
2018-07-23T00:22:43.105Z,17.60
2018-07-23T00:25:11.660Z,17.60
2018-07-23T00:27:40.217Z,17.60
2018-07-23T00:30:08.701Z,17.60
2018-07-23T00:35:05.861Z,17.50
2018-07-23T00:37:34.501Z,17.60
2018-07-23T00:40:04.929Z,17.50
2018-07-23T00:42:33.369Z,17.50
2018-07-23T00:45:01.966Z,17.50
2018-07-23T00:49:58.539Z,17.50
2018-07-23T00:52:27.272Z,17.40
2018-07-23T00:54:55.694Z,17.50
2018-07-23T00:57:24.133Z,17.40
2018-07-23T00:59:52.642Z,17.40
2018-07-23T01:02:21.117Z,17.40
2018-07-23T01:04:49.559Z,17.40
2018-07-23T01:07:18.108Z,17.30
2018-07-23T01:09:46.588Z,17.20
2018-07-23T01:12:26.446Z,17.10
2018-07-23T01:14:54.901Z,17.00
2018-07-23T01:17:24.229Z,16.90
2018-07-23T01:19:55.290Z,16.80
2018-07-23T01:22:24.841Z,16.70
2018-07-23T01:24:53.985Z,16.60
2018-07-23T01:27:22.713Z,16.50
2018-07-23T01:29:51.136Z,16.50
2018-07-23T01:32:20.089Z,16.50
2018-07-23T01:34:48.741Z,16.50
2018-07-23T01:37:17.820Z,16.50
2018-07-23T01:39:46.276Z,16.50
2018-07-23T01:42:14.876Z,16.40
2018-07-23T01:44:43.362Z,16.40
2018-07-23T01:47:12.014Z,16.30
2018-07-23T01:49:40.514Z,16.30
2018-07-23T01:52:08.942Z,16.20
2018-07-23T01:54:37.476Z,16.10
2018-07-23T01:57:05.997Z,16.10
2018-07-23T01:59:34.435Z,16.00
2018-07-23T02:02:02.937Z,15.90
2018-07-23T02:04:35.442Z,15.90
2018-07-23T02:07:04.085Z,15.90
2018-07-23T02:09:32.619Z,16.00
2018-07-23T02:12:01.289Z,16.00
2018-07-23T02:14:29.720Z,16.00
2018-07-23T02:16:58.289Z,16.00
2018-07-23T02:19:26.785Z,16.00
2018-07-23T02:21:55.231Z,16.00
2018-07-23T02:24:23.776Z,15.90
2018-07-23T02:26:52.449Z,15.90
2018-07-23T02:29:21.252Z,15.90
2018-07-23T02:31:49.689Z,15.80
2018-07-23T02:34:18.165Z,15.80
2018-07-23T02:36:46.585Z,15.80
2018-07-23T02:39:15.146Z,15.70
2018-07-23T02:41:43.596Z,15.70
2018-07-23T02:44:12.253Z,15.70
2018-07-23T02:46:40.717Z,15.60
2018-07-23T02:49:09.187Z,15.60
2018-07-23T02:51:37.650Z,15.50
2018-07-23T02:54:06.073Z,15.50
2018-07-23T02:56:34.592Z,15.40
2018-07-23T02:59:03.670Z,15.40
2018-07-23T03:01:32.184Z,15.30
2018-07-23T03:04:00.713Z,15.30
2018-07-23T03:06:29.989Z,15.30
2018-07-23T03:08:58.533Z,15.30
2018-07-23T03:11:27.045Z,15.30
2018-07-23T03:13:55.656Z,15.30
2018-07-23T03:16:24.244Z,15.30
2018-07-23T03:18:52.737Z,15.30
2018-07-23T03:21:21.192Z,15.20
2018-07-23T03:23:49.640Z,15.20
2018-07-23T03:26:18.145Z,15.20
2018-07-23T03:28:46.588Z,15.30
2018-07-23T03:31:15.157Z,15.30
2018-07-23T03:33:43.732Z,15.20
2018-07-23T03:36:12.181Z,15.20
2018-07-23T03:38:40.632Z,15.20
2018-07-23T03:41:09.113Z,15.20
2018-07-23T03:43:37.561Z,15.20
2018-07-23T03:46:06.376Z,15.20
2018-07-23T03:48:34.973Z,15.20
2018-07-23T03:51:03.471Z,15.30
2018-07-23T03:53:31.933Z,15.30
2018-07-23T03:56:00.425Z,15.40
2018-07-23T03:58:28.870Z,15.40
2018-07-23T04:00:57.309Z,15.40
2018-07-23T04:03:25.929Z,15.40
2018-07-23T04:08:22.449Z,15.50
2018-07-23T04:10:51.035Z,15.50
2018-07-23T04:13:19.551Z,15.50
2018-07-23T04:15:48.086Z,15.60
2018-07-23T04:18:16.618Z,15.60
2018-07-23T04:20:45.046Z,15.60
2018-07-23T04:23:13.521Z,15.70
2018-07-23T04:25:42.000Z,15.70
2018-07-23T04:28:10.444Z,15.80
2018-07-23T04:30:38.878Z,15.90
2018-07-23T04:33:07.393Z,16.00
2018-07-23T04:35:35.872Z,16.00
2018-07-23T04:40:32.492Z,16.20
2018-07-23T04:43:01.025Z,16.30
2018-07-23T04:45:29.481Z,16.30
2018-07-23T04:47:57.993Z,16.40
2018-07-23T04:50:26.656Z,16.50
2018-07-23T04:52:55.082Z,16.50
2018-07-23T04:55:23.537Z,16.60
2018-07-23T04:57:52.241Z,16.80
2018-07-23T05:00:20.821Z,16.90
2018-07-23T05:02:49.281Z,16.90
2018-07-23T05:05:17.713Z,17.00
2018-07-23T05:07:46.160Z,17.10
2018-07-23T05:10:14.772Z,17.20
2018-07-23T05:12:43.250Z,17.40
2018-07-23T05:15:11.818Z,17.50
2018-07-23T05:17:40.309Z,17.60
2018-07-23T05:20:08.835Z,17.70
2018-07-23T05:22:37.273Z,17.90
2018-07-23T05:25:05.774Z,18.00
2018-07-23T05:27:34.217Z,18.20
2018-07-23T05:30:02.890Z,18.30
2018-07-23T05:32:31.412Z,18.40
2018-07-23T05:34:59.842Z,18.50
2018-07-23T05:37:28.269Z,18.70
2018-07-23T05:39:56.749Z,18.80
2018-07-23T05:42:25.288Z,18.90
2018-07-23T05:44:53.721Z,19.00
2018-07-23T05:47:22.329Z,19.20
2018-07-23T05:49:50.810Z,19.30
2018-07-23T05:52:19.360Z,19.40
2018-07-23T05:54:47.912Z,19.60
2018-07-23T05:57:16.568Z,19.70
2018-07-23T05:59:45.009Z,19.80
2018-07-23T06:02:13.696Z,20.00
2018-07-23T06:04:42.241Z,20.10
2018-07-23T06:07:10.793Z,20.30
2018-07-23T06:09:39.377Z,20.50
2018-07-23T06:12:09.436Z,20.70
2018-07-23T06:14:38.091Z,21.00
2018-07-23T06:17:07.678Z,21.30
2018-07-23T06:19:36.112Z,21.50
2018-07-23T06:22:04.853Z,21.70
2018-07-23T06:24:33.410Z,21.90
2018-07-23T06:27:02.005Z,22.10
2018-07-23T06:29:30.521Z,22.20
2018-07-23T06:31:59.034Z,22.40
2018-07-23T06:34:27.561Z,22.40
2018-07-23T06:36:57.384Z,22.50
2018-07-23T06:42:19.284Z,22.40
2018-07-23T06:44:47.791Z,22.50
2018-07-23T06:47:16.261Z,22.60
2018-07-23T06:49:45.197Z,22.60
2018-07-23T06:52:13.692Z,22.70
2018-07-23T06:54:42.182Z,22.80
2018-07-23T06:57:11.124Z,22.90
2018-07-23T06:59:39.675Z,23.00
2018-07-23T07:02:08.114Z,22.90
2018-07-23T07:04:36.740Z,22.90
2018-07-23T07:07:05.361Z,22.80
2018-07-23T07:09:33.813Z,22.70
2018-07-23T07:12:02.669Z,22.50
2018-07-23T07:14:31.113Z,22.40
2018-07-23T07:16:59.777Z,22.20
2018-07-23T07:19:28.282Z,22.10
2018-07-23T07:21:56.825Z,22.00
2018-07-23T07:24:25.406Z,21.80
2018-07-23T07:26:53.955Z,21.80
2018-07-23T07:29:22.520Z,21.90
2018-07-23T07:31:51.037Z,22.00
2018-07-23T07:34:19.548Z,22.10
2018-07-23T07:36:47.986Z,22.30
2018-07-23T07:39:16.581Z,22.40
2018-07-23T07:41:45.097Z,22.40
2018-07-23T07:44:13.598Z,22.40
2018-07-23T07:46:42.197Z,22.50
2018-07-23T07:49:10.708Z,22.50
2018-07-23T07:51:39.153Z,22.60
2018-07-23T07:54:07.705Z,22.70
2018-07-23T07:56:36.193Z,22.70
2018-07-23T07:59:04.714Z,22.80
2018-07-23T08:01:34.894Z,23.00
2018-07-23T08:04:03.421Z,23.20
2018-07-23T08:06:31.993Z,23.30
2018-07-23T08:09:00.733Z,23.40
2018-07-23T08:11:29.317Z,23.50
2018-07-23T08:13:57.733Z,23.70
2018-07-23T08:16:26.288Z,23.80
2018-07-23T08:18:54.859Z,23.90
2018-07-23T08:21:24.085Z,24.10
2018-07-23T08:23:52.617Z,24.20
2018-07-23T08:26:21.097Z,24.40
2018-07-23T08:28:49.733Z,24.40
2018-07-23T08:31:18.433Z,24.50
2018-07-23T08:33:47.625Z,24.60
2018-07-23T08:36:16.085Z,24.60
2018-07-23T08:38:44.740Z,24.70
2018-07-23T08:41:13.258Z,24.80
2018-07-23T08:43:41.782Z,24.80
2018-07-23T08:46:10.331Z,24.80
2018-07-23T08:48:39.485Z,24.80
2018-07-23T08:51:08.060Z,24.90
2018-07-23T08:53:36.508Z,24.90
2018-07-23T08:56:05.155Z,25.00
2018-07-23T08:58:34.311Z,25.00
2018-07-23T09:01:10.584Z,25.20
2018-07-23T09:03:39.145Z,25.30
2018-07-23T09:06:07.677Z,25.60
2018-07-23T09:08:36.543Z,25.90
2018-07-23T09:11:05.006Z,26.10
2018-07-23T09:13:33.653Z,26.20
2018-07-23T09:16:02.419Z,26.30
2018-07-23T09:18:30.874Z,26.40
2018-07-23T09:20:59.449Z,26.20
2018-07-23T09:23:28.057Z,25.90
2018-07-23T09:25:58.385Z,25.50
2018-07-23T09:28:27.496Z,25.20
2018-07-23T09:30:56.755Z,24.90
2018-07-23T09:33:26.047Z,24.90
2018-07-23T09:35:58.622Z,25.10
2018-07-23T09:38:28.563Z,25.30
2018-07-23T09:40:57.635Z,25.50
2018-07-23T09:44:55.361Z,25.50
2018-07-23T09:49:52.141Z,25.20
2018-07-23T09:52:20.658Z,25.20
2018-07-23T10:01:33.394Z,25.30
2018-07-23T10:04:02.003Z,25.70
2018-07-23T10:06:30.486Z,25.70
2018-07-23T10:08:59.054Z,25.70
2018-07-23T10:11:27.582Z,25.70
2018-07-23T10:13:56.038Z,25.80
2018-07-23T10:16:24.565Z,25.90
2018-07-23T10:18:53.010Z,25.80
2018-07-23T10:21:21.474Z,25.80
2018-07-23T10:23:49.981Z,25.80
2018-07-23T10:26:18.425Z,25.90
2018-07-23T10:28:46.958Z,26.10
2018-07-23T10:31:15.401Z,26.20
2018-07-23T10:33:43.902Z,26.30
2018-07-23T10:36:12.738Z,26.30
2018-07-23T10:38:41.348Z,26.20
2018-07-23T10:41:10.352Z,26.20
2018-07-23T10:43:38.900Z,26.20
2018-07-23T10:46:07.433Z,26.20
2018-07-23T10:48:35.989Z,26.10
2018-07-23T10:51:04.532Z,26.00
2018-07-23T10:53:33.005Z,25.90
2018-07-23T10:56:01.446Z,25.70
2018-07-23T10:58:29.888Z,25.60
2018-07-23T11:00:58.411Z,25.70
2018-07-23T11:03:26.881Z,25.90
2018-07-23T11:05:55.316Z,26.00
2018-07-23T11:08:23.818Z,26.10
2018-07-23T11:10:52.390Z,26.10
2018-07-23T11:13:20.816Z,26.30
2018-07-23T11:15:49.365Z,26.20
2018-07-23T11:18:17.917Z,26.10
2018-07-23T11:27:30.628Z,26.10
2018-07-23T11:29:59.177Z,25.90
2018-07-23T11:32:27.647Z,25.90
2018-07-23T11:34:56.425Z,26.00
2018-07-23T11:37:24.849Z,26.00
2018-07-23T11:39:53.276Z,26.10
2018-07-23T11:42:21.729Z,26.20
2018-07-23T11:44:50.277Z,26.10
2018-07-23T11:47:18.781Z,26.20
2018-07-23T11:49:47.277Z,26.20
2018-07-23T11:52:15.803Z,26.30
2018-07-23T11:54:44.366Z,26.40
2018-07-23T11:57:12.969Z,26.40
2018-07-23T11:59:41.466Z,26.30
2018-07-23T12:02:10.218Z,26.30
2018-07-23T12:04:38.771Z,26.30
2018-07-23T12:07:07.802Z,26.40
2018-07-23T12:09:36.208Z,26.40
2018-07-23T12:12:04.727Z,26.50
2018-07-23T12:14:33.168Z,26.60
2018-07-23T12:17:01.591Z,26.80
2018-07-23T12:19:30.042Z,26.80
2018-07-23T12:21:58.693Z,26.90
2018-07-23T12:24:27.198Z,26.90
2018-07-23T12:26:55.672Z,26.70
2018-07-23T12:31:52.330Z,26.40
2018-07-23T12:34:20.939Z,26.40
2018-07-23T12:36:49.381Z,26.40
2018-07-23T12:39:17.783Z,26.40
2018-07-23T12:41:46.395Z,26.40
2018-07-23T12:44:14.944Z,26.10
2018-07-23T12:46:43.362Z,26.00
2018-07-23T12:49:11.889Z,26.00
2018-07-23T12:51:40.397Z,26.10
2018-07-23T12:54:09.474Z,26.20
2018-07-23T12:56:37.989Z,26.20
2018-07-23T12:59:06.505Z,26.30
2018-07-23T13:01:34.930Z,26.40
2018-07-23T13:04:03.442Z,26.60
2018-07-23T13:06:31.867Z,26.80
2018-07-23T13:09:00.305Z,26.90
2018-07-23T13:11:28.790Z,27.20
2018-07-23T13:13:57.204Z,27.20
2018-07-23T13:16:25.701Z,27.20
2018-07-23T13:18:54.318Z,27.20
2018-07-23T13:21:22.853Z,26.90
2018-07-23T13:23:51.450Z,26.80
2018-07-23T13:26:19.912Z,26.80
2018-07-23T13:28:48.337Z,26.90
2018-07-23T13:31:16.825Z,26.90
2018-07-23T13:33:45.314Z,26.80
2018-07-23T13:36:14.192Z,26.90
2018-07-23T13:38:44.926Z,27.10
2018-07-23T13:41:13.429Z,27.40
2018-07-23T13:43:41.990Z,27.70
2018-07-23T13:46:10.573Z,27.90
2018-07-23T13:48:39.025Z,28.10
2018-07-23T13:51:07.551Z,28.00
2018-07-23T13:53:36.368Z,27.90
2018-07-23T13:56:04.897Z,27.70
2018-07-23T13:58:33.341Z,27.50
2018-07-23T14:01:01.873Z,27.50
2018-07-23T14:03:30.374Z,27.40
2018-07-23T14:05:58.785Z,27.20
2018-07-23T14:08:27.224Z,27.20
2018-07-23T14:10:55.770Z,27.40
2018-07-23T14:13:24.194Z,27.70
2018-07-23T14:15:53.050Z,28.20
2018-07-23T14:18:21.561Z,28.30
2018-07-23T14:20:50.090Z,28.40
2018-07-23T14:23:18.561Z,28.50
2018-07-23T14:25:47.176Z,28.60
2018-07-23T14:30:43.951Z,28.80
2018-07-23T14:33:12.416Z,28.90
2018-07-23T14:35:40.923Z,28.90
2018-07-23T14:38:09.403Z,28.90
2018-07-23T14:40:38.034Z,28.80
2018-07-23T14:43:06.479Z,28.70
2018-07-23T14:45:35.033Z,28.70
2018-07-23T14:48:03.590Z,28.60
2018-07-23T14:50:32.049Z,28.40
2018-07-23T14:53:00.669Z,28.40
2018-07-23T14:55:29.237Z,28.50
2018-07-23T14:57:57.693Z,28.60
2018-07-23T15:00:26.257Z,28.70
2018-07-23T15:02:54.861Z,28.70
2018-07-23T15:05:24.698Z,28.60
2018-07-23T15:07:54.249Z,28.60
2018-07-23T15:12:50.993Z,28.40
2018-07-23T15:15:19.640Z,28.40
2018-07-23T15:17:48.241Z,28.40
2018-07-23T15:20:16.825Z,28.40
2018-07-23T15:22:45.344Z,28.40
2018-07-23T15:25:13.857Z,28.40
2018-07-23T15:27:42.361Z,28.60
2018-07-23T15:30:10.941Z,28.70
2018-07-23T15:32:39.497Z,28.70
2018-07-23T15:35:07.933Z,28.70
2018-07-23T15:37:36.381Z,28.70
2018-07-23T15:40:04.950Z,28.70
2018-07-23T15:42:34.009Z,28.80
2018-07-23T15:45:06.416Z,28.90
2018-07-23T15:47:34.961Z,29.00
2018-07-23T15:50:03.473Z,29.20
2018-07-23T15:52:32.647Z,29.30
2018-07-23T15:55:03.169Z,29.40
2018-07-23T15:57:34.057Z,29.60
2018-07-23T16:00:03.191Z,29.80
2018-07-23T16:02:31.672Z,30.00
2018-07-23T16:05:01.292Z,30.10
2018-07-23T16:07:29.737Z,30.30
2018-07-23T16:09:58.174Z,30.70
2018-07-23T16:12:26.860Z,31.00
2018-07-23T16:14:55.348Z,31.30
2018-07-23T16:20:54.973Z,32.10
2018-07-23T16:23:23.454Z,32.50
2018-07-23T16:25:51.945Z,32.70
2018-07-23T16:28:25.604Z,33.00
2018-07-23T16:30:54.312Z,33.20
2018-07-23T16:33:22.846Z,33.60
2018-07-23T16:35:51.346Z,34.00
2018-07-23T16:38:19.829Z,34.50
2018-07-23T16:40:48.420Z,34.60
2018-07-23T16:43:17.012Z,34.70
2018-07-23T16:45:45.458Z,34.60
2018-07-23T16:48:13.897Z,34.50
2018-07-23T16:50:42.526Z,34.30
2018-07-23T16:53:10.974Z,34.00
2018-07-23T16:55:39.573Z,33.80
2018-07-23T16:58:08.851Z,33.60
2018-07-23T17:00:37.404Z,33.60
2018-07-23T17:03:05.944Z,33.70
2018-07-23T17:05:34.469Z,33.70
2018-07-23T17:08:02.984Z,33.20
2018-07-23T17:10:31.638Z,32.40
2018-07-23T17:13:00.201Z,31.80
2018-07-23T17:15:28.681Z,31.00
2018-07-23T17:17:57.250Z,30.80
2018-07-23T17:20:25.680Z,30.30
2018-07-23T17:22:54.202Z,29.70
2018-07-23T17:25:22.873Z,29.10
2018-07-23T17:27:51.413Z,28.50
2018-07-23T17:30:21.769Z,28.10
2018-07-23T17:35:18.339Z,27.60
2018-07-23T17:37:46.869Z,27.40
2018-07-23T17:40:15.397Z,27.20
2018-07-23T17:42:43.904Z,27.00
2018-07-23T17:45:12.467Z,26.70
2018-07-23T17:47:40.969Z,26.40
2018-07-23T17:50:09.473Z,26.30
2018-07-23T17:52:37.921Z,26.10
2018-07-23T18:01:50.949Z,25.90
2018-07-23T18:04:19.358Z,25.80
2018-07-23T18:06:47.944Z,25.70
2018-07-23T18:09:16.404Z,25.60
2018-07-23T18:11:44.934Z,25.50
2018-07-23T18:14:13.582Z,25.50
2018-07-23T18:16:42.185Z,25.30
2018-07-23T18:19:10.675Z,25.30
2018-07-23T18:21:39.099Z,25.30
2018-07-23T18:24:07.693Z,25.20
2018-07-23T18:26:36.245Z,25.10
2018-07-23T18:29:05.313Z,25.00
2018-07-23T18:31:33.921Z,24.90
2018-07-23T18:34:02.574Z,24.80
2018-07-23T18:36:31.109Z,24.70
2018-07-23T18:38:59.633Z,24.60
2018-07-23T18:41:28.162Z,24.50
2018-07-23T18:43:56.621Z,24.40
2018-07-23T18:46:25.122Z,24.30
2018-07-23T18:49:31.338Z,24.20
2018-07-23T18:51:59.865Z,24.20
2018-07-23T18:54:29.497Z,24.10
2018-07-23T18:56:59.273Z,24.00
2018-07-23T18:59:27.880Z,23.90
2018-07-23T19:01:57.101Z,23.70
2018-07-23T19:04:25.674Z,23.70
2018-07-23T19:06:54.185Z,23.60
2018-07-23T19:09:23.965Z,23.50
2018-07-23T19:11:53.853Z,23.40
2018-07-23T19:14:22.541Z,23.40
2018-07-23T19:16:52.049Z,23.30
2018-07-23T19:19:20.501Z,23.20
2018-07-23T19:21:49.010Z,23.10
2018-07-23T19:24:17.445Z,23.00
2018-07-23T19:26:46.007Z,22.90
2018-07-23T19:29:14.652Z,22.80
2018-07-23T19:31:43.110Z,22.80
2018-07-23T19:34:12.395Z,22.70
2018-07-23T19:36:41.115Z,22.60
2018-07-23T19:39:11.393Z,22.60
2018-07-23T19:41:40.157Z,22.50
2018-07-23T19:44:08.989Z,22.50
2018-07-23T19:46:37.584Z,22.50
2018-07-23T19:49:06.125Z,22.40
2018-07-23T19:51:34.992Z,22.40
2018-07-23T19:54:03.750Z,22.40
2018-07-23T19:56:32.342Z,22.30
2018-07-23T19:59:02.961Z,22.40
2018-07-23T20:01:31.582Z,22.30
2018-07-23T20:04:00.423Z,22.30
2018-07-23T20:06:29.360Z,22.20
2018-07-23T20:08:58.917Z,22.20
2018-07-23T20:11:28.149Z,22.10
2018-07-23T20:13:56.735Z,22.00
2018-07-23T20:16:25.252Z,22.00
2018-07-23T20:18:53.802Z,21.90
2018-07-23T20:21:22.382Z,21.90
2018-07-23T20:23:50.929Z,21.80
2018-07-23T20:26:19.482Z,21.80
2018-07-23T20:28:48.181Z,21.80
2018-07-23T20:31:16.644Z,21.80
2018-07-23T20:33:46.003Z,21.80
2018-07-23T20:36:14.812Z,21.80
2018-07-23T20:38:43.363Z,21.80
2018-07-23T20:41:11.869Z,21.80
2018-07-23T20:43:40.474Z,21.80
2018-07-23T20:46:09.224Z,21.80
2018-07-23T20:51:06.398Z,21.70
2018-07-23T20:53:34.919Z,21.70
2018-07-23T20:56:03.708Z,21.70
2018-07-23T20:58:32.377Z,21.60
2018-07-23T21:03:29.366Z,21.50
2018-07-23T21:05:57.810Z,21.40
2018-07-23T21:08:26.365Z,21.40
2018-07-23T21:10:54.829Z,21.40
2018-07-23T21:13:23.466Z,21.40
2018-07-23T21:15:51.921Z,21.30
2018-07-23T21:18:20.482Z,21.30
2018-07-23T21:20:48.968Z,21.20
2018-07-23T21:23:17.560Z,21.10
2018-07-23T21:25:45.993Z,21.10
2018-07-23T21:28:14.589Z,21.00
2018-07-23T21:30:43.298Z,21.00
2018-07-23T21:33:11.861Z,21.00
2018-07-23T21:35:40.336Z,20.90
2018-07-23T21:41:24.532Z,20.80
2018-07-23T21:43:53.062Z,20.80
2018-07-23T21:46:21.498Z,20.80
2018-07-23T21:48:50.450Z,20.70
2018-07-23T21:51:18.883Z,20.70
2018-07-23T21:53:47.337Z,20.70
2018-07-23T21:56:15.824Z,20.60
2018-07-23T21:58:44.282Z,20.60
2018-07-23T22:01:12.765Z,20.60
2018-07-23T22:03:41.276Z,20.50
2018-07-23T22:06:09.698Z,20.50
2018-07-23T22:08:38.188Z,20.50
2018-07-23T22:11:06.685Z,20.40
2018-07-23T22:13:35.223Z,20.40
2018-07-23T22:16:03.835Z,20.30
2018-07-23T22:18:32.335Z,20.30
2018-07-23T22:21:00.762Z,20.30
2018-07-23T22:23:29.317Z,20.30
2018-07-23T22:25:57.926Z,20.30
2018-07-23T22:28:26.353Z,20.20
2018-07-23T22:30:54.767Z,20.20
2018-07-23T22:33:23.345Z,20.20
2018-07-23T22:35:51.874Z,20.20
2018-07-23T22:38:20.317Z,20.20
2018-07-23T22:40:48.818Z,20.20
2018-07-23T22:43:17.253Z,20.20
2018-07-23T22:45:45.689Z,20.20
2018-07-23T22:48:14.187Z,20.20
2018-07-23T22:50:42.650Z,20.20
2018-07-23T22:53:11.223Z,20.10
2018-07-23T22:55:39.791Z,20.10
2018-07-23T22:58:08.427Z,20.10
2018-07-23T23:00:36.981Z,20.10
2018-07-23T23:03:05.617Z,20.00
2018-07-23T23:05:34.054Z,20.00
2018-07-23T23:08:02.940Z,20.00
2018-07-23T23:10:31.416Z,19.90
2018-07-23T23:12:59.975Z,19.90
2018-07-23T23:15:28.389Z,19.80
2018-07-23T23:17:56.890Z,19.80
2018-07-23T23:20:25.452Z,19.80
2018-07-23T23:22:53.946Z,19.70
2018-07-23T23:25:22.437Z,19.70
2018-07-23T23:27:50.885Z,19.80
2018-07-23T23:30:19.520Z,19.80
2018-07-23T23:32:47.997Z,19.70
2018-07-23T23:35:16.628Z,19.70
2018-07-23T23:37:45.186Z,19.70
2018-07-23T23:40:14.036Z,19.60
2018-07-23T23:42:42.605Z,19.60
2018-07-23T23:45:11.075Z,19.60
2018-07-23T23:47:41.294Z,19.60
2018-07-23T23:50:09.825Z,19.50
2018-07-23T23:52:38.349Z,19.50
2018-07-23T23:55:06.926Z,19.40
2018-07-23T23:57:35.375Z,19.40
